Almont, Colorado
Current Conditions -  °F | °C
As of 5:55 AM on Saturday 22 Nov 2014 (Local Time) from KGUC Reporting Station
Clear Clear  
Wind Chill:   Ceiling: Unl
Heat Index:   Visibility: 10mi
Dew Point:   Wind: 3mph
Humidity: 72%   Direction: 10°N
Pressure: 30.19"   Gusts: NA
Location:  38.66°N, 106.85°W
Report Text: KGUC 221255Z AUTO 01003KT 10SM CLR M14/M18 A3019 RMK AO1
Loading
Personal Weather Stations






























Interactive Weather Map New forecast layout! Learn more

10-Day Weather Forecast

Advertisements
Track Severe Weather on mobile